Kezdőlap
METAR-TAF:

METAR-TAF

Repülőterek :

Puerto Natales, Chile

földrajzi szélesség: 51-40-15S, földrajzi hosszúság: 072-31-42W, magasság: 66 m

Jelenlegi meteorológiai megfigyelések

A jelentés 3 órával és 27 perccel ezelõtt készült, 20:00 UTC
Északi szél 4 kt
Hőmérséklet 4°C
Páratartalom 70%
Légköri nyomás 1010 hPa
Látótávolság 10 km, vagy több
Szakadozott felhőzet 5000 lábon

METAR: SCNT 222000Z 36004KT 9999 BKN050 04/M01 Q1010

Idő: 19:27 (23:27 UTC)

Előrejelzés

A jelentés 12 órával és 37 perccel ezelõtt készült, 10:50 UTC
Az előrejelzés 22-én 12 óra UTC és 23-én 00 óra UTC között érvényes
Észak-északnyugati szél 5 kt
Látótávolság 10 km, vagy több
Kevés felhő 4000 lábon
22-én 20 óra UTC és 22-én 22 óra UTC között fokozatosan kialakuló

TAF: SCNT 221050Z 2212/2300 33005KT 9999 FEW040 TNM01/2212Z TX07/2218Z BECMG 2220/2222 3505KT

Meteorológiai megfigyelések és előrejelzések több, mint 4000 repülőtéren (METAR és TAF jelentéseket).

A térképen piros és sárga pontok jelzik az elérhető meteorológiai állomásokat.

Mozgassa az egeret a pont fölött, hogy megjelenjen az állomás neve.

Azután kattintson az időjárási megfigyelések és előrejelzések megtekintéséhez.

A térkép megváltoztatása: kattintson a fekete keresztel jelölt zöld gombra ráközelítéshez, a vonallal jelölt zöld gombra távolításhoz, vagy a zöld nyilakra a szomszédos térképek eléréséhez.


METAR-TAF: